createdAt,value
2022-10-25T00:02:21.882Z,13.14
2022-10-25T00:04:49.334Z,13.13
2022-10-25T00:07:16.604Z,13.13
2022-10-25T00:09:43.904Z,13.13
2022-10-25T00:12:11.159Z,13.14
2022-10-25T00:14:38.349Z,13.03
2022-10-25T00:17:05.835Z,13.01
2022-10-25T00:19:33.116Z,13.22
2022-10-25T00:22:00.701Z,13.21
2022-10-25T00:24:28.448Z,13.29
2022-10-25T00:26:56.357Z,13.20
2022-10-25T00:31:55.512Z,13.33
2022-10-25T00:34:22.743Z,13.22
2022-10-25T00:36:50.021Z,13.16
2022-10-25T00:39:17.316Z,13.01
2022-10-25T00:41:44.592Z,12.99
2022-10-25T00:44:45.722Z,12.95
2022-10-25T00:47:22.125Z,12.96
2022-10-25T00:50:27.954Z,13.00
2022-10-25T00:52:58.812Z,13.21
2022-10-25T00:55:28.633Z,13.27
2022-10-25T00:58:28.898Z,13.31
2022-10-25T01:00:56.906Z,13.15
2022-10-25T01:03:25.657Z,13.18
2022-10-25T01:05:53.911Z,13.21
2022-10-25T01:08:22.009Z,13.16
2022-10-25T01:10:49.814Z,13.03
2022-10-25T01:13:17.349Z,13.21
2022-10-25T01:15:53.998Z,13.17
2022-10-25T01:18:43.350Z,13.23
2022-10-25T01:21:17.715Z,13.06
2022-10-25T01:23:53.308Z,13.00
2022-10-25T01:26:39.124Z,13.17
2022-10-25T01:29:22.684Z,13.18
2022-10-25T01:32:01.175Z,13.33
2022-10-25T01:34:45.573Z,13.30
2022-10-25T01:37:31.091Z,13.16
2022-10-25T01:40:22.033Z,13.08
2022-10-25T01:43:17.119Z,13.04
2022-10-25T01:45:58.204Z,13.15
2022-10-25T01:48:48.786Z,13.04
2022-10-25T01:51:18.297Z,12.95
2022-10-25T01:53:48.160Z,12.79
2022-10-25T01:56:29.389Z,12.73
2022-10-25T01:59:08.469Z,12.82
2022-10-25T02:02:04.344Z,12.73
2022-10-25T02:05:06.792Z,12.68
2022-10-25T02:07:46.289Z,12.66
2022-10-25T02:10:25.851Z,12.74
2022-10-25T02:13:18.285Z,12.86
2022-10-25T02:16:21.075Z,12.84
2022-10-25T02:18:53.602Z,13.03
2022-10-25T02:21:22.687Z,12.98
2022-10-25T02:23:51.387Z,12.88
2022-10-25T02:26:20.359Z,12.95
2022-10-25T02:28:48.895Z,12.88
2022-10-25T02:31:19.786Z,13.02
2022-10-25T02:33:48.137Z,13.05
2022-10-25T02:36:20.706Z,13.02
2022-10-25T02:39:48.883Z,13.10
2022-10-25T02:42:16.293Z,13.02
2022-10-25T02:44:43.705Z,12.80
2022-10-25T02:47:11.111Z,12.75
2022-10-25T02:49:38.643Z,12.76
2022-10-25T02:52:05.895Z,12.86
2022-10-25T02:54:33.110Z,12.76
2022-10-25T02:57:00.298Z,12.82
2022-10-25T02:59:27.620Z,12.81
2022-10-25T03:01:54.851Z,12.65
2022-10-25T03:04:22.323Z,12.76
2022-10-25T03:06:49.480Z,12.64
2022-10-25T03:09:17.100Z,12.81
2022-10-25T03:11:44.373Z,12.90
2022-10-25T03:14:11.573Z,13.04
2022-10-25T03:16:38.820Z,12.75
2022-10-25T03:19:06.141Z,12.67
2022-10-25T03:21:33.318Z,12.64
2022-10-25T03:24:00.731Z,12.60
2022-10-25T03:26:27.909Z,12.60
2022-10-25T03:28:55.156Z,12.46
2022-10-25T03:31:22.380Z,12.55
2022-10-25T03:33:51.257Z,12.65
2022-10-25T03:36:18.465Z,12.62
2022-10-25T03:38:45.694Z,12.56
2022-10-25T03:41:12.856Z,12.57
2022-10-25T03:43:40.052Z,12.40
2022-10-25T03:46:07.649Z,12.49
2022-10-25T03:48:34.916Z,12.49
2022-10-25T03:51:02.230Z,12.45
2022-10-25T03:53:29.443Z,12.49
2022-10-25T03:55:56.623Z,12.48
2022-10-25T03:58:24.016Z,12.32
2022-10-25T04:00:51.355Z,12.20
2022-10-25T04:03:18.664Z,12.16
2022-10-25T04:05:45.853Z,12.17
2022-10-25T04:08:13.086Z,12.10
2022-10-25T04:10:40.343Z,12.13
2022-10-25T04:13:07.620Z,12.16
2022-10-25T04:15:35.330Z,12.10
2022-10-25T04:18:02.683Z,12.11
2022-10-25T04:20:30.001Z,12.03
2022-10-25T04:22:58.495Z,12.02
2022-10-25T04:25:27.440Z,12.08
2022-10-25T04:27:55.080Z,12.05
2022-10-25T04:30:22.724Z,12.05
2022-10-25T04:32:50.426Z,12.08
2022-10-25T04:35:18.018Z,12.11
2022-10-25T04:37:45.249Z,12.15
2022-10-25T04:40:12.699Z,12.09
2022-10-25T04:42:39.963Z,12.11
2022-10-25T04:45:07.560Z,12.14
2022-10-25T04:47:37.680Z,12.15
2022-10-25T04:50:05.925Z,12.12
2022-10-25T04:52:33.220Z,12.10
2022-10-25T04:55:00.398Z,12.07
2022-10-25T04:57:27.697Z,11.90
2022-10-25T04:59:56.292Z,12.04
2022-10-25T05:02:24.284Z,12.05
2022-10-25T05:04:51.585Z,12.01
2022-10-25T05:07:20.426Z,11.85
2022-10-25T05:09:47.823Z,11.68
2022-10-25T05:12:15.873Z,11.86
2022-10-25T05:14:44.001Z,11.99
2022-10-25T05:17:11.364Z,11.76
2022-10-25T05:19:38.614Z,11.75
2022-10-25T05:22:05.958Z,11.62
2022-10-25T05:24:33.462Z,11.64
2022-10-25T05:27:00.657Z,11.59
2022-10-25T05:29:27.965Z,11.49
2022-10-25T05:31:57.891Z,11.66
2022-10-25T05:34:25.195Z,11.50
2022-10-25T05:36:52.387Z,11.49
2022-10-25T05:39:19.611Z,11.53
2022-10-25T05:41:46.912Z,11.52
2022-10-25T05:44:18.123Z,11.59
2022-10-25T05:46:45.722Z,11.49
2022-10-25T05:49:13.069Z,11.49
2022-10-25T05:51:40.416Z,11.54
2022-10-25T05:54:11.522Z,11.54
2022-10-25T05:56:40.100Z,11.61
2022-10-25T05:59:10.321Z,11.54
2022-10-25T06:01:39.779Z,11.53
2022-10-25T06:04:08.153Z,11.59
2022-10-25T06:06:36.704Z,11.65
2022-10-25T06:09:05.484Z,11.56
2022-10-25T06:11:33.087Z,11.61
2022-10-25T06:14:00.504Z,11.80
2022-10-25T06:16:27.972Z,11.72
2022-10-25T06:18:55.352Z,11.82
2022-10-25T06:21:25.010Z,11.93
2022-10-25T06:23:52.871Z,11.96
2022-10-25T06:26:21.418Z,12.05
2022-10-25T06:28:51.956Z,12.13
2022-10-25T06:31:20.026Z,12.21
2022-10-25T06:33:47.771Z,12.20
2022-10-25T06:36:17.887Z,12.38
2022-10-25T06:38:46.544Z,12.44
2022-10-25T06:41:16.922Z,12.43
2022-10-25T06:43:44.551Z,12.39
2022-10-25T06:46:40.599Z,12.38
2022-10-25T06:49:19.838Z,12.35
2022-10-25T06:51:47.120Z,12.46
2022-10-25T06:54:14.383Z,12.43
2022-10-25T06:56:41.634Z,12.48
2022-10-25T06:59:08.919Z,12.38
2022-10-25T07:01:36.426Z,12.53
2022-10-25T07:04:03.856Z,12.64
2022-10-25T07:06:36.037Z,12.75
2022-10-25T07:09:05.510Z,12.79
2022-10-25T07:11:33.581Z,12.95
2022-10-25T07:14:02.352Z,12.94
2022-10-25T07:16:29.695Z,12.91
2022-10-25T07:19:02.762Z,12.87
2022-10-25T07:21:31.784Z,12.90
2022-10-25T07:23:59.415Z,12.87
2022-10-25T07:26:30.851Z,13.00
2022-10-25T07:29:00.084Z,12.85
2022-10-25T07:31:36.191Z,12.70
2022-10-25T07:34:04.942Z,12.86
2022-10-25T07:36:32.920Z,12.84
2022-10-25T07:39:00.818Z,12.92
2022-10-25T07:41:28.001Z,13.02
2022-10-25T07:43:55.572Z,13.01
2022-10-25T07:46:23.642Z,12.96
2022-10-25T07:48:52.498Z,13.16
2022-10-25T07:51:19.950Z,13.47
2022-10-25T07:53:47.588Z,13.56
2022-10-25T07:56:20.482Z,13.73
2022-10-25T07:58:51.969Z,13.70
2022-10-25T08:01:22.497Z,13.92
2022-10-25T08:03:50.830Z,14.44
2022-10-25T08:06:18.582Z,14.78
2022-10-25T08:08:45.921Z,14.97
2022-10-25T08:11:13.178Z,15.26
2022-10-25T08:13:40.420Z,14.93
2022-10-25T08:16:08.109Z,14.70
2022-10-25T08:18:35.591Z,14.57
2022-10-25T08:21:04.537Z,14.43
2022-10-25T08:23:33.123Z,14.68
2022-10-25T08:26:01.437Z,14.77
2022-10-25T08:28:31.281Z,14.67
2022-10-25T08:31:01.038Z,14.71
2022-10-25T08:33:29.292Z,14.64
2022-10-25T08:36:00.167Z,14.50
2022-10-25T08:38:27.381Z,14.57
2022-10-25T08:41:03.144Z,15.05
2022-10-25T08:43:52.033Z,15.56
2022-10-25T08:46:26.313Z,15.73
2022-10-25T08:49:04.421Z,16.90
2022-10-25T08:51:39.862Z,18.26
2022-10-25T08:54:26.281Z,18.82
2022-10-25T08:57:15.159Z,19.01
2022-10-25T08:59:48.993Z,18.22
2022-10-25T09:02:33.912Z,17.01
2022-10-25T09:05:01.788Z,16.69
2022-10-25T09:07:37.401Z,16.89
2022-10-25T09:10:29.187Z,16.77
2022-10-25T09:13:10.609Z,17.19
2022-10-25T09:16:16.538Z,16.20
2022-10-25T09:18:51.052Z,15.59
2022-10-25T09:21:57.139Z,15.44
2022-10-25T09:24:28.889Z,16.17
2022-10-25T09:27:00.180Z,16.59
2022-10-25T09:29:32.674Z,16.40
2022-10-25T09:32:01.866Z,15.85
2022-10-25T09:34:33.302Z,15.49
2022-10-25T09:37:12.425Z,15.21
2022-10-25T09:40:21.414Z,15.48
2022-10-25T09:42:54.758Z,15.81
2022-10-25T09:45:27.221Z,16.10
2022-10-25T09:48:21.454Z,16.04
2022-10-25T09:51:14.826Z,15.76
2022-10-25T09:53:44.135Z,15.26
2022-10-25T09:56:11.993Z,15.06
2022-10-25T09:58:40.359Z,15.02
2022-10-25T10:01:32.397Z,14.77
2022-10-25T10:04:33.001Z,14.62
2022-10-25T10:07:20.411Z,14.64
2022-10-25T10:09:50.124Z,14.65
2022-10-25T10:12:35.740Z,14.69
2022-10-25T10:15:29.481Z,14.74
2022-10-25T10:18:34.361Z,14.61
2022-10-25T10:21:10.677Z,14.57
2022-10-25T10:23:44.087Z,14.46
2022-10-25T10:26:19.849Z,14.50
2022-10-25T10:28:50.041Z,14.42
2022-10-25T10:31:19.415Z,14.39
2022-10-25T10:33:51.572Z,14.32
2022-10-25T10:36:30.300Z,14.42
2022-10-25T10:39:21.569Z,14.44
2022-10-25T10:42:15.150Z,14.29
2022-10-25T10:45:02.044Z,14.24
2022-10-25T10:47:37.275Z,14.26
2022-10-25T10:50:25.752Z,14.26
2022-10-25T10:52:58.372Z,14.25
2022-10-25T10:55:35.328Z,14.30
2022-10-25T10:58:13.669Z,14.23
2022-10-25T11:01:08.725Z,14.13
2022-10-25T11:03:48.971Z,14.04
2022-10-25T11:06:32.521Z,14.05
2022-10-25T11:09:19.836Z,14.01
2022-10-25T11:12:14.936Z,14.09
2022-10-25T11:14:42.630Z,14.16
2022-10-25T11:17:31.317Z,14.32
2022-10-25T11:20:17.206Z,15.09
2022-10-25T11:23:06.150Z,15.48
2022-10-25T11:25:52.232Z,15.28
2022-10-25T11:28:57.223Z,15.39
2022-10-25T11:31:46.184Z,15.84
2022-10-25T11:34:32.972Z,16.00
2022-10-25T11:37:08.864Z,15.98
2022-10-25T11:40:07.798Z,15.78
2022-10-25T11:43:06.299Z,15.58
2022-10-25T11:45:45.005Z,15.43
2022-10-25T11:48:30.037Z,15.29
2022-10-25T11:51:04.342Z,15.18
2022-10-25T11:53:52.910Z,15.26
2022-10-25T11:57:04.491Z,15.78
2022-10-25T11:59:44.125Z,16.09
2022-10-25T12:02:45.510Z,16.18
2022-10-25T12:06:05.964Z,15.81
2022-10-25T12:08:58.894Z,15.73
2022-10-25T12:11:43.590Z,15.63
2022-10-25T12:14:16.751Z,15.66
2022-10-25T12:16:44.804Z,15.68
2022-10-25T12:19:23.178Z,16.02
2022-10-25T12:21:55.672Z,16.25
2022-10-25T12:24:36.947Z,16.18
2022-10-25T12:27:05.314Z,16.39
2022-10-25T12:29:40.592Z,16.59
2022-10-25T12:32:18.879Z,16.78
2022-10-25T12:34:51.378Z,16.79
2022-10-25T12:37:49.034Z,16.70
2022-10-25T12:40:20.682Z,16.75
2022-10-25T12:43:14.169Z,16.61
2022-10-25T12:46:02.724Z,15.99
2022-10-25T12:49:03.333Z,15.46
2022-10-25T12:52:12.428Z,15.32
2022-10-25T12:54:54.764Z,15.23
2022-10-25T12:57:51.228Z,15.06
2022-10-25T13:03:27.217Z,14.46
2022-10-25T13:06:18.188Z,14.56
2022-10-25T13:08:45.783Z,14.66
2022-10-25T13:11:13.349Z,14.74
2022-10-25T13:13:47.871Z,14.71
2022-10-25T13:16:25.567Z,14.80
2022-10-25T13:19:14.646Z,14.81
2022-10-25T13:21:53.406Z,14.86
2022-10-25T13:24:39.822Z,14.90
2022-10-25T13:27:13.045Z,14.78
2022-10-25T13:30:22.061Z,14.66
2022-10-25T13:33:27.717Z,14.63
2022-10-25T13:35:54.948Z,14.47
2022-10-25T13:38:34.207Z,14.41
2022-10-25T13:41:24.271Z,14.36
2022-10-25T13:44:01.769Z,14.21
2022-10-25T13:46:33.904Z,13.91
2022-10-25T13:49:05.480Z,13.65
2022-10-25T13:51:33.034Z,13.47
2022-10-25T13:54:07.096Z,13.45
2022-10-25T13:56:47.866Z,13.52
2022-10-25T13:59:56.750Z,13.55
2022-10-25T14:02:24.160Z,13.55
2022-10-25T14:04:51.578Z,13.60
2022-10-25T14:07:43.972Z,13.63
2022-10-25T14:12:57.294Z,13.72
2022-10-25T14:15:58.495Z,13.70
2022-10-25T14:18:26.959Z,13.77
2022-10-25T14:20:59.429Z,13.79
2022-10-25T14:23:34.616Z,13.81
2022-10-25T14:26:06.690Z,13.87
2022-10-25T14:28:39.254Z,13.78
2022-10-25T14:31:12.039Z,13.70
2022-10-25T14:33:53.533Z,13.76
2022-10-25T14:36:38.035Z,13.73
2022-10-25T14:39:18.663Z,13.68
2022-10-25T14:42:00.848Z,13.58
2022-10-25T14:44:44.078Z,13.41
2022-10-25T14:47:32.588Z,13.16
2022-10-25T14:50:01.578Z,13.05
2022-10-25T14:52:30.952Z,13.01
2022-10-25T14:55:01.582Z,13.03
2022-10-25T14:57:29.351Z,12.97
2022-10-25T15:00:01.402Z,13.09
2022-10-25T15:02:39.459Z,13.08
2022-10-25T15:05:14.369Z,13.07
2022-10-25T15:07:46.339Z,12.96
2022-10-25T15:10:41.101Z,12.85
2022-10-25T15:13:22.680Z,12.97
2022-10-25T15:15:51.539Z,12.91
2022-10-25T15:18:38.685Z,12.82
2022-10-25T15:21:08.387Z,12.79
2022-10-25T15:23:36.325Z,12.84
2022-10-25T15:26:22.143Z,12.71
2022-10-25T15:29:00.727Z,12.77
2022-10-25T15:31:32.428Z,12.69
2022-10-25T15:34:02.310Z,12.66
2022-10-25T15:36:32.322Z,12.71
2022-10-25T15:39:09.408Z,12.79
2022-10-25T15:41:40.501Z,12.82
2022-10-25T15:44:07.731Z,12.90
2022-10-25T15:46:35.250Z,12.84
2022-10-25T15:49:08.627Z,12.76
2022-10-25T15:51:40.563Z,12.68
2022-10-25T15:54:15.361Z,12.56
2022-10-25T15:56:43.179Z,12.58
2022-10-25T15:59:11.328Z,12.60
2022-10-25T16:01:41.647Z,12.47
2022-10-25T16:04:19.171Z,12.48
2022-10-25T16:06:47.198Z,12.45
2022-10-25T16:09:14.485Z,12.53
2022-10-25T16:11:47.149Z,12.55
2022-10-25T16:14:23.696Z,12.60
2022-10-25T16:16:51.672Z,12.53
2022-10-25T16:19:20.255Z,12.44
2022-10-25T16:21:47.876Z,12.43
2022-10-25T16:24:15.194Z,12.52
2022-10-25T16:26:47.601Z,12.45
2022-10-25T16:29:24.316Z,12.47
2022-10-25T16:31:52.725Z,12.55
2022-10-25T16:34:20.014Z,12.47
2022-10-25T16:36:48.380Z,12.52
2022-10-25T16:39:15.563Z,12.55
2022-10-25T16:41:44.785Z,12.56
2022-10-25T16:44:13.349Z,12.57
2022-10-25T16:46:40.641Z,12.54
2022-10-25T16:49:10.954Z,12.50
2022-10-25T16:51:39.496Z,12.46
2022-10-25T16:54:07.363Z,12.44
2022-10-25T16:56:34.442Z,12.46
2022-10-25T16:59:01.480Z,12.38
2022-10-25T17:01:33.780Z,12.34
2022-10-25T17:04:03.119Z,12.32
2022-10-25T17:06:45.669Z,12.41
2022-10-25T17:09:12.882Z,12.45
2022-10-25T17:11:40.998Z,12.44
2022-10-25T17:14:09.881Z,12.42
2022-10-25T17:16:41.956Z,12.36
2022-10-25T17:19:13.021Z,12.27
2022-10-25T17:21:40.417Z,12.27
2022-10-25T17:24:09.428Z,12.22
2022-10-25T17:26:37.828Z,12.18
2022-10-25T17:29:05.144Z,12.08
2022-10-25T17:31:32.925Z,12.10
2022-10-25T17:34:01.211Z,12.08
2022-10-25T17:36:32.459Z,12.07
2022-10-25T17:39:00.578Z,12.09
2022-10-25T17:41:28.146Z,12.09
2022-10-25T17:43:56.867Z,12.12
2022-10-25T17:46:26.845Z,12.09
2022-10-25T17:48:56.513Z,12.05
2022-10-25T17:51:23.804Z,11.99
2022-10-25T17:53:54.205Z,11.93
2022-10-25T17:56:23.094Z,11.86
2022-10-25T17:58:51.653Z,11.93
2022-10-25T18:01:21.923Z,11.95
2022-10-25T18:03:51.629Z,11.96
2022-10-25T18:08:58.926Z,11.81
2022-10-25T18:11:28.336Z,11.77
2022-10-25T18:13:58.405Z,11.85
2022-10-25T18:16:27.963Z,11.90
2022-10-25T18:18:56.826Z,11.74
2022-10-25T18:21:24.667Z,11.72
2022-10-25T18:23:56.296Z,11.77
2022-10-25T18:26:25.178Z,11.80
2022-10-25T18:28:52.845Z,11.83
2022-10-25T18:31:21.110Z,11.78
2022-10-25T18:33:48.933Z,11.73
2022-10-25T18:36:19.433Z,11.71
2022-10-25T18:38:48.493Z,11.79
2022-10-25T18:41:21.962Z,11.68
2022-10-25T18:43:49.879Z,11.66
2022-10-25T18:46:17.185Z,11.67
2022-10-25T18:48:45.299Z,11.59
2022-10-25T18:51:14.226Z,11.52
2022-10-25T18:53:41.486Z,11.43
2022-10-25T18:56:12.247Z,11.33
2022-10-25T18:58:39.720Z,11.24
2022-10-25T19:01:12.213Z,11.23
2022-10-25T19:03:39.943Z,11.19
2022-10-25T19:06:07.884Z,11.23
2022-10-25T19:08:35.588Z,11.38
2022-10-25T19:11:04.196Z,11.41
2022-10-25T19:13:31.381Z,11.33
2022-10-25T19:15:58.903Z,11.35
2022-10-25T19:18:26.648Z,11.31
2022-10-25T19:20:53.796Z,11.31
2022-10-25T19:23:21.262Z,11.33
2022-10-25T19:25:48.480Z,11.25
2022-10-25T19:28:15.570Z,11.17
2022-10-25T19:30:43.016Z,11.11
2022-10-25T19:33:10.316Z,11.08
2022-10-25T19:35:37.390Z,11.05
2022-10-25T19:38:04.423Z,11.08
2022-10-25T19:40:31.788Z,11.00
2022-10-25T19:42:58.806Z,10.96
2022-10-25T19:45:25.825Z,10.95
2022-10-25T19:47:56.079Z,10.94
2022-10-25T19:50:23.949Z,10.93
2022-10-25T19:52:51.822Z,10.95
2022-10-25T19:55:18.818Z,10.95
2022-10-25T19:57:45.957Z,11.06
2022-10-25T20:00:13.713Z,11.02
2022-10-25T20:02:41.041Z,10.95
2022-10-25T20:05:08.377Z,10.83
2022-10-25T20:07:36.478Z,10.79
2022-10-25T20:10:03.545Z,10.68
2022-10-25T20:12:30.981Z,10.58
2022-10-25T20:14:58.599Z,10.53
2022-10-25T20:17:25.744Z,10.47
2022-10-25T20:19:52.907Z,10.38
2022-10-25T20:22:19.941Z,10.45
2022-10-25T20:24:46.992Z,10.44
2022-10-25T20:27:14.028Z,10.37
2022-10-25T20:29:41.302Z,10.31
2022-10-25T20:32:08.616Z,10.29
2022-10-25T20:34:37.518Z,10.35
2022-10-25T20:37:05.089Z,10.38
2022-10-25T20:39:32.227Z,10.42
2022-10-25T20:41:59.335Z,10.33
2022-10-25T20:44:26.450Z,10.27
2022-10-25T20:46:53.546Z,10.23
2022-10-25T20:49:20.628Z,10.19
2022-10-25T20:51:47.799Z,10.13
2022-10-25T20:54:14.896Z,10.20
2022-10-25T20:56:42.041Z,10.31
2022-10-25T20:59:09.106Z,10.42
2022-10-25T21:01:36.380Z,10.33
2022-10-25T21:04:03.594Z,10.25
2022-10-25T21:06:30.639Z,10.15
2022-10-25T21:08:57.731Z,10.07
2022-10-25T21:11:24.753Z,10.02
2022-10-25T21:13:51.869Z,9.92
2022-10-25T21:16:18.878Z,9.87
2022-10-25T21:18:45.933Z,9.77
2022-10-25T21:21:17.900Z,9.75
2022-10-25T21:23:45.726Z,9.67
2022-10-25T21:26:12.852Z,9.71
2022-10-25T21:28:40.968Z,9.68
2022-10-25T21:31:11.158Z,9.61
2022-10-25T21:33:38.560Z,9.59
2022-10-25T21:36:11.638Z,9.62
2022-10-25T21:38:39.714Z,9.67
2022-10-25T21:41:11.700Z,9.80
2022-10-25T21:43:43.845Z,9.75
2022-10-25T21:46:11.583Z,9.80
2022-10-25T21:48:38.698Z,9.80
2022-10-25T21:51:05.772Z,9.86
2022-10-25T21:53:33.259Z,9.94
2022-10-25T21:56:04.366Z,10.01
2022-10-25T21:58:31.476Z,9.98
2022-10-25T22:00:58.515Z,9.99
2022-10-25T22:03:27.855Z,9.97
2022-10-25T22:05:54.933Z,9.91
2022-10-25T22:08:22.046Z,9.84
2022-10-25T22:10:56.076Z,9.78
2022-10-25T22:13:23.150Z,9.69
2022-10-25T22:15:56.923Z,9.60
2022-10-25T22:18:23.968Z,9.49
2022-10-25T22:20:54.984Z,9.48
2022-10-25T22:23:22.359Z,9.50
2022-10-25T22:25:49.362Z,9.53
2022-10-25T22:28:16.405Z,9.54
2022-10-25T22:30:43.799Z,9.54
2022-10-25T22:33:11.036Z,9.52
2022-10-25T22:35:38.124Z,9.57
2022-10-25T22:38:05.221Z,9.62
2022-10-25T22:40:32.302Z,9.61
2022-10-25T22:43:02.537Z,9.62
2022-10-25T22:45:29.575Z,9.71
2022-10-25T22:47:56.567Z,9.76
2022-10-25T22:50:23.631Z,9.77
2022-10-25T22:52:50.694Z,9.80
2022-10-25T22:55:17.716Z,9.81
2022-10-25T22:57:44.851Z,9.80
2022-10-25T23:00:12.222Z,9.78
2022-10-25T23:02:39.547Z,9.77
2022-10-25T23:05:06.820Z,9.73
2022-10-25T23:07:33.888Z,9.77
2022-10-25T23:10:00.922Z,9.67
2022-10-25T23:12:27.931Z,9.61
2022-10-25T23:14:54.888Z,9.54
2022-10-25T23:17:23.091Z,9.53
2022-10-25T23:19:53.057Z,9.54
2022-10-25T23:22:20.832Z,9.51
2022-10-25T23:24:48.986Z,9.43
2022-10-25T23:27:16.858Z,9.43
2022-10-25T23:29:43.909Z,9.34
2022-10-25T23:32:11.047Z,9.27
2022-10-25T23:34:38.863Z,9.27
2022-10-25T23:37:05.860Z,9.23
2022-10-25T23:39:33.013Z,9.18
2022-10-25T23:42:00.109Z,9.14
2022-10-25T23:44:27.450Z,9.11
2022-10-25T23:46:54.361Z,9.04
2022-10-25T23:49:21.262Z,9.02
2022-10-25T23:51:48.762Z,9.06
2022-10-25T23:54:15.657Z,8.98
2022-10-25T23:56:42.551Z,8.83
2022-10-25T23:59:09.585Z,8.78
